Time;durP1;ratioP1;P1;durP2;ratioP2;P2;SDS_P1;SDS_P2;PMS_P1;PMS_P2;Temp;Humidity;BMP_temperature;BMP_pressure;BME280_temperature;BME280_humidity;BME280_pressure;Samples;Min_cycle;Max_cycle;Signal;HPM_P1;HPM_P2
2024/01/24 00:01:56;;;;;;;;;;;11.30;99.90;;;;;;5111694;27;19924;-71
2024/01/24 00:04:22;;;;;;;;;;;11.30;99.90;;;;;;5094435;28;19926;-71
2024/01/24 00:06:48;;;;;;;;;;;11.30;99.90;;;;;;5103373;28;19927;-71
2024/01/24 00:09:13;;;;;;;;;;;11.30;99.90;;;;;;5112010;27;19935;-72
2024/01/24 00:11:39;;;;;;;;;;;11.30;99.90;;;;;;5106793;28;20394;-71
2024/01/24 00:14:04;;;;;;;;;;;11.30;99.90;;;;;;5108902;28;20375;-71
2024/01/24 00:16:30;;;;;;;;;;;11.30;99.90;;;;;;5107549;28;19973;-71
2024/01/24 00:18:55;;;;;;;;;;;11.30;99.90;;;;;;5108962;27;19920;-71
2024/01/24 00:21:21;;;;;;;;;;;11.30;99.90;;;;;;5110600;28;20361;-71
2024/01/24 00:23:47;;;;;;;;;;;11.30;99.90;;;;;;5115330;27;19973;-72
2024/01/24 00:26:12;;;;;;;;;;;11.30;99.90;;;;;;5106492;28;19958;-71
2024/01/24 00:28:38;;;;;;;;;;;11.30;99.90;;;;;;5109304;28;19971;-71
2024/01/24 00:31:03;;;;;;;;;;;11.30;99.90;;;;;;5107326;28;19981;-71
2024/01/24 00:33:32;;;;;;;;;;;11.30;99.90;;;;;;5107744;28;19928;-71
2024/01/24 00:35:57;;;;;;;;;;;11.30;99.90;;;;;;5108245;28;19980;-71
2024/01/24 00:38:23;;;;;;;;;;;11.30;99.90;;;;;;5108144;28;19923;-71
2024/01/24 00:40:48;;;;;;;;;;;11.30;99.90;;;;;;5108495;28;20341;-72
2024/01/24 00:43:14;;;;;;;;;;;11.30;99.90;;;;;;5107857;28;19969;-72
2024/01/24 00:45:39;;;;;;;;;;;11.30;99.90;;;;;;5106747;28;19930;-72
2024/01/24 00:48:06;;;;;;;;;;;11.20;99.90;;;;;;5107337;28;19924;-72
2024/01/24 00:50:32;;;;;;;;;;;11.30;99.90;;;;;;5108971;28;19970;-72
2024/01/24 00:53:00;;;;;;;;;;;11.30;99.90;;;;;;5106955;28;19955;-71
2024/01/24 00:55:27;;;;;;;;;;;11.40;99.90;;;;;;5108370;28;19923;-72
2024/01/24 00:57:52;;;;;;;;;;;11.30;99.90;;;;;;5106867;28;20383;-72
2024/01/24 01:00:18;;;;;;;;;;;11.30;99.90;;;;;;5107705;28;19924;-72
2024/01/24 01:02:43;;;;;;;;;;;11.30;99.90;;;;;;5107884;28;19988;-72
2024/01/24 01:05:09;;;;;;;;;;;11.40;99.90;;;;;;5091794;28;19993;-72
2024/01/24 01:07:34;;;;;;;;;;;11.30;99.90;;;;;;5086605;28;19924;-71
2024/01/24 01:10:00;;;;;;;;;;;11.40;99.90;;;;;;5091016;28;20432;-72
2024/01/24 01:12:25;;;;;;;;;;;11.40;99.90;;;;;;5107641;28;20443;-71
2024/01/24 01:14:51;;;;;;;;;;;11.30;99.90;;;;;;5108345;28;19923;-72
2024/01/24 01:17:16;;;;;;;;;;;11.30;99.90;;;;;;5107354;28;19968;-72
2024/01/24 01:19:42;;;;;;;;;;;11.30;99.90;;;;;;5110804;28;19924;-72
2024/01/24 01:22:07;;;;;;;;;;;11.30;99.90;;;;;;5111509;28;20802;-72
2024/01/24 01:24:33;;;;;;;;;;;11.30;99.90;;;;;;5112432;28;20040;-71
2024/01/24 01:26:58;;;;;;;;;;;11.30;99.90;;;;;;5107129;28;19963;-71
2024/01/24 01:29:24;;;;;;;;;;;11.40;99.90;;;;;;5090983;28;20009;-72
2024/01/24 01:31:49;;;;;;;;;;;11.30;99.90;;;;;;5103238;28;19939;-72
2024/01/24 01:34:15;;;;;;;;;;;11.30;99.90;;;;;;5109211;28;19937;-72
2024/01/24 01:36:40;;;;;;;;;;;11.30;99.90;;;;;;5113666;28;20042;-71
2024/01/24 01:39:07;;;;;;;;;;;11.30;99.90;;;;;;5111852;28;19930;-73
2024/01/24 01:41:32;;;;;;;;;;;11.30;99.90;;;;;;5111544;28;19924;-72
2024/01/24 01:43:58;;;;;;;;;;;11.30;99.90;;;;;;5111660;28;20367;-72
2024/01/24 01:46:25;;;;;;;;;;;11.30;99.90;;;;;;5110670;28;19927;-72
2024/01/24 01:48:53;;;;;;;;;;;11.40;99.90;;;;;;5109413;28;19924;-72
2024/01/24 01:51:22;;;;;;;;;;;11.30;99.90;;;;;;5112307;28;20286;-72
2024/01/24 01:53:47;;;;;;;;;;;11.40;99.90;;;;;;5111660;28;19923;-73
2024/01/24 01:56:15;;;;;;;;;;;11.30;99.90;;;;;;5110924;28;19932;-72
2024/01/24 01:58:41;;;;;;;;;;;11.40;99.90;;;;;;5112305;28;20351;-72
2024/01/24 02:01:07;;;;;;;;;;;11.40;99.90;;;;;;5111888;28;20026;-72
2024/01/24 02:03:33;;;;;;;;;;;11.50;99.90;;;;;;5109911;28;19928;-71
2024/01/24 02:05:59;;;;;;;;;;;11.50;99.90;;;;;;5098289;28;19931;-72
2024/01/24 02:08:25;;;;;;;;;;;11.50;99.90;;;;;;5108287;28;20283;-72
2024/01/24 02:10:50;;;;;;;;;;;11.70;99.90;;;;;;5102218;28;19923;-72
2024/01/24 02:13:16;;;;;;;;;;;11.60;99.90;;;;;;5132919;27;19938;-72
2024/01/24 02:15:41;;;;;;;;;;;11.60;99.90;;;;;;5131830;27;19924;-72
2024/01/24 02:18:07;;;;;;;;;;;11.60;99.90;;;;;;5112653;27;19968;-72
2024/01/24 02:20:33;;;;;;;;;;;11.60;99.90;;;;;;5114792;27;19927;-72
2024/01/24 02:22:59;;;;;;;;;;;11.70;99.90;;;;;;5111769;27;19938;-72
2024/01/24 02:25:24;;;;;;;;;;;11.60;99.90;;;;;;5110541;28;19928;-72
2024/01/24 02:27:50;;;;;;;;;;;11.70;99.90;;;;;;5114392;27;19927;-72
2024/01/24 02:30:15;;;;;;;;;;;11.70;99.90;;;;;;5113601;27;19968;-72
2024/01/24 02:32:41;;;;;;;;;;;11.70;99.90;;;;;;5113318;27;19927;-72
2024/01/24 02:35:06;;;;;;;;;;;11.90;99.90;;;;;;5113677;27;20026;-71
2024/01/24 02:37:32;;;;;;;;;;;11.80;99.90;;;;;;5112598;27;20171;-72
2024/01/24 02:39:57;;;;;;;;;;;11.80;99.90;;;;;;5113926;27;20362;-72
2024/01/24 02:42:23;;;;;;;;;;;10.90;99.90;;;;;;5114290;27;20026;-71
2024/01/24 02:44:49;;;;;;;;;;;11.80;99.90;;;;;;5111887;27;19927;-71
2024/01/24 02:47:14;;;;;;;;;;;11.90;99.90;;;;;;5128692;27;19946;-71
2024/01/24 02:49:40;;;;;;;;;;;11.90;99.90;;;;;;5134541;27;19923;-72
2024/01/24 02:52:06;;;;;;;;;;;12.00;99.90;;;;;;5120458;27;19927;-71
2024/01/24 02:54:31;;;;;;;;;;;12.00;99.90;;;;;;5114194;27;20438;-72
2024/01/24 02:56:57;;;;;;;;;;;11.90;99.90;;;;;;5114002;27;19927;-72
2024/01/24 02:59:23;;;;;;;;;;;11.90;99.90;;;;;;5112757;27;19934;-71
2024/01/24 03:01:49;;;;;;;;;;;11.90;99.90;;;;;;5113483;27;19924;-72
2024/01/24 03:04:14;;;;;;;;;;;12.00;99.90;;;;;;5113996;27;19923;-71
2024/01/24 03:06:41;;;;;;;;;;;11.90;99.90;;;;;;5099762;28;20015;-71
2024/01/24 03:09:07;;;;;;;;;;;12.00;99.90;;;;;;5111852;27;19931;-71
2024/01/24 03:11:33;;;;;;;;;;;11.90;99.90;;;;;;5113476;27;19927;-71
2024/01/24 03:13:58;;;;;;;;;;;11.80;99.90;;;;;;5110845;27;19923;-71
2024/01/24 03:16:24;;;;;;;;;;;11.90;99.90;;;;;;5129863;27;20392;-71
2024/01/24 03:18:51;;;;;;;;;;;11.70;99.90;;;;;;5113194;27;19931;-72
2024/01/24 03:21:17;;;;;;;;;;;11.70;99.90;;;;;;5112476;27;20383;-72
2024/01/24 03:23:43;;;;;;;;;;;11.60;99.90;;;;;;5112680;27;19924;-72
2024/01/24 03:26:09;;;;;;;;;;;11.60;99.90;;;;;;5112125;27;19934;-72
2024/01/24 03:28:34;;;;;;;;;;;11.50;99.90;;;;;;5131371;27;19968;-72
2024/01/24 03:31:00;;;;;;;;;;;11.50;99.90;;;;;;5108692;28;19931;-72
2024/01/24 03:33:26;;;;;;;;;;;11.50;99.90;;;;;;5109715;28;20014;-72
2024/01/24 03:35:51;;;;;;;;;;;11.50;99.90;;;;;;5109760;28;20287;-71
2024/01/24 03:38:18;;;;;;;;;;;11.40;99.90;;;;;;5112509;27;19924;-72
2024/01/24 03:40:43;;;;;;;;;;;11.30;99.90;;;;;;5111747;27;19935;-71
2024/01/24 03:43:10;;;;;;;;;;;11.40;99.90;;;;;;5112852;27;20298;-71
2024/01/24 03:45:39;;;;;;;;;;;11.30;99.90;;;;;;5129995;27;20339;-72
2024/01/24 03:48:06;;;;;;;;;;;11.30;99.90;;;;;;5111363;27;20353;-72
2024/01/24 03:50:32;;;;;;;;;;;11.30;99.90;;;;;;5131812;27;20096;-71
2024/01/24 03:52:57;;;;;;;;;;;11.30;99.90;;;;;;5112046;27;19923;-72
2024/01/24 03:55:23;;;;;;;;;;;11.30;99.90;;;;;;5111492;27;19940;-72
2024/01/24 03:57:48;;;;;;;;;;;11.30;99.90;;;;;;5112784;27;19930;-72
2024/01/24 04:00:16;;;;;;;;;;;11.20;99.90;;;;;;5112643;27;19958;-71
2024/01/24 04:02:41;;;;;;;;;;;11.20;99.90;;;;;;5129023;27;19927;-72
2024/01/24 04:05:07;;;;;;;;;;;11.50;99.90;;;;;;5112117;27;19949;-72
2024/01/24 04:07:32;;;;;;;;;;;11.20;99.90;;;;;;5097957;28;19988;-72
2024/01/24 04:09:58;;;;;;;;;;;11.20;99.90;;;;;;5113871;27;19931;-72
2024/01/24 04:12:24;;;;;;;;;;;11.30;99.90;;;;;;5111233;28;19923;-72
2024/01/24 04:14:50;;;;;;;;;;;11.30;99.90;;;;;;5111889;27;19923;-71
2024/01/24 04:17:15;;;;;;;;;;;11.30;99.90;;;;;;5108440;28;19931;-72
2024/01/24 04:19:41;;;;;;;;;;;11.30;99.90;;;;;;5109216;28;19973;-71
2024/01/24 04:22:07;;;;;;;;;;;11.30;99.90;;;;;;5111555;27;19930;-72
2024/01/24 04:24:33;;;;;;;;;;;11.20;99.90;;;;;;5129197;27;19927;-72
2024/01/24 04:26:58;;;;;;;;;;;11.20;99.90;;;;;;5110769;27;19919;-71
2024/01/24 04:29:24;;;;;;;;;;;11.20;99.90;;;;;;5112439;27;19925;-72
2024/01/24 04:31:49;;;;;;;;;;;11.20;99.90;;;;;;5110660;27;19975;-72
2024/01/24 04:34:17;;;;;;;;;;;11.20;99.90;;;;;;5110945;27;20010;-71
2024/01/24 04:36:43;;;;;;;;;;;11.10;99.90;;;;;;5112642;28;19924;-72
2024/01/24 04:39:10;;;;;;;;;;;11.10;99.90;;;;;;5129206;27;19962;-71
2024/01/24 04:41:36;;;;;;;;;;;11.10;99.90;;;;;;5111136;28;19987;-72
2024/01/24 04:44:01;;;;;;;;;;;11.30;99.90;;;;;;5111107;27;21390;-71
2024/01/24 04:46:27;;;;;;;;;;;11.60;99.90;;;;;;5130055;27;20375;-71
2024/01/24 04:48:52;;;;;;;;;;;11.00;99.90;;;;;;5130223;28;19934;-71
2024/01/24 04:51:18;;;;;;;;;;;11.00;99.90;;;;;;5129806;28;19926;-71
2024/01/24 04:53:43;;;;;;;;;;;11.10;99.90;;;;;;5112218;27;20304;-72
2024/01/24 04:56:09;;;;;;;;;;;10.90;99.90;;;;;;5113331;27;19987;-72
2024/01/24 04:58:34;;;;;;;;;;;10.90;99.90;;;;;;5134277;27;19927;-72
2024/01/24 05:01:00;;;;;;;;;;;11.00;99.90;;;;;;5115294;27;19923;-72
2024/01/24 05:03:26;;;;;;;;;;;10.80;99.90;;;;;;5115372;27;19988;-71
2024/01/24 05:05:52;;;;;;;;;;;10.90;99.90;;;;;;5130068;27;20370;-72
2024/01/24 05:08:18;;;;;;;;;;;10.80;99.90;;;;;;5110494;27;20146;-72
2024/01/24 05:10:44;;;;;;;;;;;10.80;99.90;;;;;;5114985;27;20286;-72
2024/01/24 05:13:10;;;;;;;;;;;10.80;99.90;;;;;;5104839;28;19923;-72
2024/01/24 05:15:36;;;;;;;;;;;10.80;99.90;;;;;;5113986;27;20403;-72
2024/01/24 05:18:01;;;;;;;;;;;10.80;99.90;;;;;;5114728;27;20014;-72
2024/01/24 05:20:27;;;;;;;;;;;10.80;99.90;;;;;;5132634;27;19931;-72
2024/01/24 05:22:53;;;;;;;;;;;10.80;99.90;;;;;;5114689;27;19928;-72
2024/01/24 05:25:18;;;;;;;;;;;10.80;99.90;;;;;;5115289;27;20337;-72
2024/01/24 05:27:44;;;;;;;;;;;10.80;99.90;;;;;;5115077;27;20023;-71
2024/01/24 05:30:10;;;;;;;;;;;10.80;99.90;;;;;;5115587;27;19923;-72
2024/01/24 05:32:35;;;;;;;;;;;10.70;99.90;;;;;;5115363;27;19979;-72
2024/01/24 05:35:01;;;;;;;;;;;10.70;99.90;;;;;;5114601;27;20383;-72
2024/01/24 05:37:26;;;;;;;;;;;10.80;99.90;;;;;;5113347;27;19932;-72
2024/01/24 05:39:52;;;;;;;;;;;10.70;99.90;;;;;;5111647;27;20030;-72
2024/01/24 05:42:18;;;;;;;;;;;10.70;99.90;;;;;;5098261;27;20676;-72
2024/01/24 05:44:44;;;;;;;;;;;10.70;99.90;;;;;;5115131;27;19923;-72
2024/01/24 05:47:09;;;;;;;;;;;10.70;99.90;;;;;;5114955;27;19930;-71
2024/01/24 05:49:36;;;;;;;;;;;10.60;99.90;;;;;;5114642;27;20389;-72
2024/01/24 05:52:05;;;;;;;;;;;10.60;99.90;;;;;;5133403;27;19927;-72
2024/01/24 05:54:30;;;;;;;;;;;10.60;99.90;;;;;;5110371;27;20335;-72
2024/01/24 05:56:57;;;;;;;;;;;10.60;99.90;;;;;;5114633;27;20014;-72
2024/01/24 05:59:22;;;;;;;;;;;10.60;99.90;;;;;;5109996;28;19967;-72
2024/01/24 06:01:48;;;;;;;;;;;10.60;99.90;;;;;;5110238;27;19978;-72
2024/01/24 06:04:13;;;;;;;;;;;10.60;99.90;;;;;;5114380;27;19923;-71
2024/01/24 06:06:39;;;;;;;;;;;10.50;99.90;;;;;;5131135;27;19923;-71
2024/01/24 06:09:05;;;;;;;;;;;10.50;99.90;;;;;;5105403;27;20456;-71
2024/01/24 06:11:31;;;;;;;;;;;10.50;99.90;;;;;;5129802;27;20397;-71
2024/01/24 06:13:56;;;;;;;;;;;10.50;99.90;;;;;;5113460;27;19976;-71
2024/01/24 06:16:22;;;;;;;;;;;10.50;99.90;;;;;;5131770;27;20374;-71
2024/01/24 06:18:47;;;;;;;;;;;10.50;99.90;;;;;;5133028;27;20023;-71
2024/01/24 06:21:13;;;;;;;;;;;10.60;99.90;;;;;;5132573;27;19958;-72
2024/01/24 06:23:38;;;;;;;;;;;10.50;99.90;;;;;;5113335;27;20317;-72
2024/01/24 06:26:04;;;;;;;;;;;10.40;99.90;;;;;;5114544;27;19928;-72
2024/01/24 06:28:30;;;;;;;;;;;10.40;99.90;;;;;;5114317;27;19923;-71
2024/01/24 06:30:55;;;;;;;;;;;10.40;99.90;;;;;;5131276;27;19923;-72
2024/01/24 06:33:21;;;;;;;;;;;10.40;99.90;;;;;;5113921;27;20359;-71
2024/01/24 06:35:47;;;;;;;;;;;10.40;99.90;;;;;;5112872;27;19924;-72
2024/01/24 06:38:13;;;;;;;;;;;10.40;99.90;;;;;;5107052;27;19939;-72
2024/01/24 06:40:39;;;;;;;;;;;10.40;99.90;;;;;;5113771;27;20025;-72
2024/01/24 06:43:04;;;;;;;;;;;10.40;99.90;;;;;;5106696;27;20307;-73
2024/01/24 06:45:30;;;;;;;;;;;10.20;99.90;;;;;;5110141;27;19923;-72
2024/01/24 06:47:55;;;;;;;;;;;10.20;99.90;;;;;;5112327;27;20421;-71
2024/01/24 06:50:21;;;;;;;;;;;10.20;99.90;;;;;;5114424;27;20180;-72
2024/01/24 06:52:46;;;;;;;;;;;10.20;99.90;;;;;;5112230;27;19949;-72
2024/01/24 06:55:13;;;;;;;;;;;10.10;99.90;;;;;;5110392;27;19939;-72
2024/01/24 06:57:39;;;;;;;;;;;10.10;99.90;;;;;;5113370;27;19923;-71
2024/01/24 07:00:05;;;;;;;;;;;10.10;99.90;;;;;;5111857;27;19934;-72
2024/01/24 07:02:30;;;;;;;;;;;10.10;99.90;;;;;;5112283;27;19930;-71
2024/01/24 07:04:56;;;;;;;;;;;10.10;99.90;;;;;;5110266;27;19923;-71
2024/01/24 07:07:21;;;;;;;;;;;10.00;99.90;;;;;;5131945;27;20037;-72
2024/01/24 07:09:47;;;;;;;;;;;10.00;99.90;;;;;;5112509;27;20372;-72
2024/01/24 07:12:13;;;;;;;;;;;10.00;99.90;;;;;;5130933;27;19996;-72
2024/01/24 07:14:39;;;;;;;;;;;10.00;99.90;;;;;;5132122;27;19928;-71
2024/01/24 07:17:05;;;;;;;;;;;10.00;99.90;;;;;;5112309;27;19979;-72
2024/01/24 07:19:30;;;;;;;;;;;10.00;99.90;;;;;;5112374;27;19947;-72
2024/01/24 07:21:56;;;;;;;;;;;10.00;99.90;;;;;;5112880;27;20006;-71
2024/01/24 07:24:21;;;;;;;;;;;10.00;99.90;;;;;;5112539;27;19924;-71
2024/01/24 07:26:47;;;;;;;;;;;10.00;99.90;;;;;;5112384;27;19996;-71
2024/01/24 07:29:12;;;;;;;;;;;10.00;99.90;;;;;;5112934;27;19955;-74
2024/01/24 07:31:39;;;;;;;;;;;10.00;99.90;;;;;;5111921;27;19920;-70
2024/01/24 07:34:05;;;;;;;;;;;9.90;99.90;;;;;;5110451;27;19928;-70
2024/01/24 07:36:31;;;;;;;;;;;9.90;99.90;;;;;;5130408;27;19930;-72
2024/01/24 07:38:56;;;;;;;;;;;9.90;99.90;;;;;;5129744;27;19920;-75
2024/01/24 07:41:23;;;;;;;;;;;9.90;99.90;;;;;;5129477;27;19923;-74
2024/01/24 07:43:49;;;;;;;;;;;9.90;99.90;;;;;;5112723;27;20069;-75
2024/01/24 07:46:14;;;;;;;;;;;9.90;99.90;;;;;;5111364;27;20384;-73
2024/01/24 07:48:40;;;;;;;;;;;9.90;99.90;;;;;;5101320;27;19936;-73
2024/01/24 07:51:05;;;;;;;;;;;9.90;99.90;;;;;;5111517;27;20017;-74
2024/01/24 07:53:31;;;;;;;;;;;10.00;99.90;;;;;;5106868;28;19924;-74
2024/01/24 07:55:56;;;;;;;;;;;9.90;99.90;;;;;;5104450;27;19923;-74
2024/01/24 07:58:22;;;;;;;;;;;9.90;99.90;;;;;;5129497;27;19927;-73
2024/01/24 08:00:48;;;;;;;;;;;9.90;99.90;;;;;;5124815;27;19923;-74
2024/01/24 08:03:13;;;;;;;;;;;9.90;99.90;;;;;;5109945;27;19930;-72
2024/01/24 08:05:39;;;;;;;;;;;10.00;99.90;;;;;;5112699;27;19923;-74
2024/01/24 08:08:04;;;;;;;;;;;9.80;99.90;;;;;;5109319;27;19932;-73
2024/01/24 08:10:30;;;;;;;;;;;9.90;99.90;;;;;;5109530;27;20355;-73
2024/01/24 08:12:56;;;;;;;;;;;9.80;99.90;;;;;;5111700;27;19978;-73
2024/01/24 08:15:21;;;;;;;;;;;9.80;99.90;;;;;;5129994;27;19927;-72
2024/01/24 08:17:47;;;;;;;;;;;9.90;99.90;;;;;;5130263;27;19946;-72
2024/01/24 08:20:13;;;;;;;;;;;9.40;99.90;;;;;;5130103;27;19935;-71
2024/01/24 08:22:38;;;;;;;;;;;9.80;99.90;;;;;;5111958;27;19924;-72
2024/01/24 08:25:04;;;;;;;;;;;9.80;99.90;;;;;;5112280;27;20302;-72
2024/01/24 08:27:30;;;;;;;;;;;9.90;99.90;;;;;;5112201;27;19931;-72
2024/01/24 08:29:56;;;;;;;;;;;9.90;99.90;;;;;;5110684;27;20332;-73
2024/01/24 08:32:22;;;;;;;;;;;10.20;99.90;;;;;;5129333;27;19929;-72
2024/01/24 08:34:48;;;;;;;;;;;9.90;99.90;;;;;;5127305;27;19927;-73
2024/01/24 08:37:13;;;;;;;;;;;10.00;99.90;;;;;;5112106;27;19924;-72
2024/01/24 08:39:39;;;;;;;;;;;9.90;99.90;;;;;;5111414;27;20374;-73
2024/01/24 08:42:05;;;;;;;;;;;9.90;99.90;;;;;;5112555;27;19931;-73
2024/01/24 08:44:31;;;;;;;;;;;9.90;99.90;;;;;;5111854;28;19979;-72
2024/01/24 08:46:56;;;;;;;;;;;9.90;99.90;;;;;;5111518;28;20018;-72
2024/01/24 08:49:22;;;;;;;;;;;10.00;99.90;;;;;;5128392;28;20006;-72
2024/01/24 08:51:47;;;;;;;;;;;9.90;99.90;;;;;;5110315;27;20018;-73
2024/01/24 08:54:13;;;;;;;;;;;10.00;99.90;;;;;;5098701;28;20363;-73
2024/01/24 08:56:39;;;;;;;;;;;9.90;99.90;;;;;;5091847;28;20064;-72
2024/01/24 08:59:04;;;;;;;;;;;10.10;99.90;;;;;;5091058;28;20030;-72
2024/01/24 09:01:30;;;;;;;;;;;9.90;99.90;;;;;;5089437;28;19924;-73
2024/01/24 09:03:56;;;;;;;;;;;9.90;99.90;;;;;;5107249;28;19923;-72
2024/01/24 09:06:22;;;;;;;;;;;10.20;99.90;;;;;;5109902;27;19978;-72
2024/01/24 09:08:54;;;;;;;;;;;9.90;99.90;;;;;;5112119;28;19935;-72
2024/01/24 09:11:20;;;;;;;;;;;9.90;99.90;;;;;;5100082;28;19931;-73
2024/01/24 09:13:46;;;;;;;;;;;10.20;99.90;;;;;;5090955;28;19924;-73
2024/01/24 09:16:12;;;;;;;;;;;10.00;99.90;;;;;;5107454;28;19923;-72
2024/01/24 09:18:38;;;;;;;;;;;10.10;99.90;;;;;;5091146;28;20007;-73
2024/01/24 09:21:03;;;;;;;;;;;10.00;99.90;;;;;;5099967;27;19936;-73
2024/01/24 09:23:29;;;;;;;;;;;10.00;99.90;;;;;;5110181;28;19923;-73
2024/01/24 09:25:55;;;;;;;;;;;10.00;99.90;;;;;;5110754;28;20290;-72
2024/01/24 09:28:20;;;;;;;;;;;10.00;99.90;;;;;;5112299;28;20358;-73
2024/01/24 09:30:46;;;;;;;;;;;10.00;99.90;;;;;;5111444;28;19927;-72
2024/01/24 09:33:11;;;;;;;;;;;10.00;99.90;;;;;;5109236;28;19923;-73
2024/01/24 09:35:37;;;;;;;;;;;10.10;99.90;;;;;;5128937;28;19928;-73
2024/01/24 09:38:04;;;;;;;;;;;10.10;99.90;;;;;;5129851;28;20401;-72
2024/01/24 09:40:29;;;;;;;;;;;10.10;99.90;;;;;;5110685;27;20243;-72
2024/01/24 09:43:00;;;;;;;;;;;10.10;99.90;;;;;;5113707;27;19924;-73
2024/01/24 09:45:27;;;;;;;;;;;10.20;99.90;;;;;;5115631;27;20002;-73
2024/01/24 09:47:54;;;;;;;;;;;10.20;99.90;;;;;;5113717;27;20523;-72
2024/01/24 09:50:21;;;;;;;;;;;10.20;99.90;;;;;;5114980;27;19949;-73
2024/01/24 09:52:46;;;;;;;;;;;10.20;99.90;;;;;;5115330;27;20357;-73
2024/01/24 09:55:13;;;;;;;;;;;10.30;99.90;;;;;;5093943;28;20023;-73
2024/01/24 09:57:39;;;;;;;;;;;10.30;99.90;;;;;;5095329;28;20028;-73
2024/01/24 10:00:05;;;;;;;;;;;10.30;99.90;;;;;;5094131;28;19931;-72
2024/01/24 10:02:30;;;;;;;;;;;10.30;99.90;;;;;;5094345;27;19923;-72
2024/01/24 10:04:58;;;;;;;;;;;10.40;99.90;;;;;;5131327;27;19927;-73
2024/01/24 10:07:24;;;;;;;;;;;10.50;99.90;;;;;;5114732;27;19924;-72
2024/01/24 10:09:56;;;;;;;;;;;10.30;99.90;;;;;;5114272;27;20402;-73
2024/01/24 10:12:22;;;;;;;;;;;10.40;99.90;;;;;;5103052;28;19930;-73
2024/01/24 10:14:47;;;;;;;;;;;10.40;99.90;;;;;;5092745;28;20014;-72
2024/01/24 10:17:13;;;;;;;;;;;10.40;99.90;;;;;;5094020;28;19928;-73
2024/01/24 10:19:39;;;;;;;;;;;10.50;99.90;;;;;;5110143;27;19924;-72
2024/01/24 10:22:04;;;;;;;;;;;10.50;99.90;;;;;;5113734;27;19927;-72
2024/01/24 10:24:31;;;;;;;;;;;10.50;99.90;;;;;;5115065;27;19939;-72
2024/01/24 10:26:57;;;;;;;;;;;10.60;99.90;;;;;;5114350;27;19963;-73
2024/01/24 10:29:22;;;;;;;;;;;10.50;99.90;;;;;;5113948;27;19988;-73
2024/01/24 10:31:53;;;;;;;;;;;10.90;99.90;;;;;;5112505;27;19928;-72
2024/01/24 10:34:20;;;;;;;;;;;10.60;99.90;;;;;;5111873;27;20316;-73
2024/01/24 10:36:46;;;;;;;;;;;10.70;99.90;;;;;;5113554;27;20014;-73
2024/01/24 10:39:14;;;;;;;;;;;10.60;99.90;;;;;;5113412;27;19978;-72
2024/01/24 10:41:40;;;;;;;;;;;10.60;99.90;;;;;;5112653;27;19930;-72
2024/01/24 10:44:07;;;;;;;;;;;10.70;99.90;;;;;;5112623;27;19923;-72
2024/01/24 10:46:33;;;;;;;;;;;10.70;99.90;;;;;;5114041;27;19927;-73
2024/01/24 10:48:59;;;;;;;;;;;10.70;99.90;;;;;;5113552;27;19931;-71
2024/01/24 10:51:26;;;;;;;;;;;10.60;99.90;;;;;;5113065;27;20012;-72
2024/01/24 10:53:52;;;;;;;;;;;10.60;99.90;;;;;;5110380;27;19923;-73
2024/01/24 10:56:18;;;;;;;;;;;10.90;99.90;;;;;;5113311;27;19930;-73
2024/01/24 10:58:44;;;;;;;;;;;10.60;99.90;;;;;;5131911;27;19984;-73
2024/01/24 11:01:10;;;;;;;;;;;10.50;99.90;;;;;;5113186;27;19931;-72
2024/01/24 11:03:36;;;;;;;;;;;10.50;99.90;;;;;;5108842;27;19928;-72
2024/01/24 11:06:05;;;;;;;;;;;11.30;99.90;;;;;;5101939;27;19992;-71
2024/01/24 11:08:39;;;;;;;;;;;10.60;99.90;;;;;;5120360;27;19931;-72
2024/01/24 11:11:09;;;;;;;;;;;10.70;99.90;;;;;;5111390;27;20035;-72
2024/01/24 11:13:35;;;;;;;;;;;11.00;99.90;;;;;;5101010;27;20417;-72
2024/01/24 11:16:05;;;;;;;;;;;11.10;99.90;;;;;;5110950;27;19923;-72
2024/01/24 11:18:31;;;;;;;;;;;11.10;99.90;;;;;;5108830;27;20481;-70
2024/01/24 11:20:58;;;;;;;;;;;11.10;99.90;;;;;;5107882;27;19924;-71
2024/01/24 11:23:44;;;;;;;;;;;11.00;99.90;;;;;;5102965;27;20325;-71
2024/01/24 11:26:11;;;;;;;;;;;11.00;99.90;;;;;;5104377;27;19954;-71
2024/01/24 11:28:37;;;;;;;;;;;10.90;99.90;;;;;;5101548;27;20413;-72
2024/01/24 11:31:03;;;;;;;;;;;10.90;99.90;;;;;;5117309;27;20030;-71
2024/01/24 11:33:28;;;;;;;;;;;10.80;99.90;;;;;;5105563;27;19967;-71
2024/01/24 11:35:55;;;;;;;;;;;10.80;99.90;;;;;;5094576;27;20008;-72
2024/01/24 11:38:22;;;;;;;;;;;10.80;99.90;;;;;;5098929;27;19931;-71
2024/01/24 11:40:50;;;;;;;;;;;10.80;99.90;;;;;;5108732;27;20042;-71
2024/01/24 11:43:26;;;;;;;;;;;10.70;99.90;;;;;;5109536;27;20349;-71
2024/01/24 11:46:00;;;;;;;;;;;10.70;99.90;;;;;;5105496;27;19970;-71
2024/01/24 11:48:29;;;;;;;;;;;10.70;99.90;;;;;;5092962;27;19931;-71
2024/01/24 11:51:14;;;;;;;;;;;10.60;99.90;;;;;;5100250;27;19930;-71
2024/01/24 11:53:40;;;;;;;;;;;10.70;99.90;;;;;;5101809;27;20282;-72
2024/01/24 11:56:14;;;;;;;;;;;10.50;99.90;;;;;;5120082;27;19927;-71
2024/01/24 11:58:40;;;;;;;;;;;10.50;99.90;;;;;;5115949;27;19923;-71
2024/01/24 12:01:07;;;;;;;;;;;10.50;99.90;;;;;;5096960;27;19947;-71
2024/01/24 12:03:33;;;;;;;;;;;10.60;99.90;;;;;;5104368;27;20382;-71
2024/01/24 12:05:59;;;;;;;;;;;10.60;99.90;;;;;;5098425;27;19930;-71
2024/01/24 12:08:25;;;;;;;;;;;10.60;99.90;;;;;;5106607;27;20275;-71
2024/01/24 12:10:51;;;;;;;;;;;10.70;99.90;;;;;;5125463;27;19930;-71
2024/01/24 12:13:17;;;;;;;;;;;10.70;99.90;;;;;;5105088;27;19931;-71
2024/01/24 12:15:44;;;;;;;;;;;10.90;99.90;;;;;;5108521;27;19934;-70
2024/01/24 12:18:13;;;;;;;;;;;10.70;99.90;;;;;;5109050;27;20366;-70
2024/01/24 12:20:44;;;;;;;;;;;10.70;99.90;;;;;;5109476;27;19939;-71
2024/01/24 12:23:13;;;;;;;;;;;10.70;99.90;;;;;;5103590;28;19923;-71
2024/01/24 12:25:39;;;;;;;;;;;10.70;99.90;;;;;;5103871;28;19923;-72
2024/01/24 12:28:06;;;;;;;;;;;10.70;99.90;;;;;;5105052;27;19962;-70
2024/01/24 12:30:34;;;;;;;;;;;10.70;99.90;;;;;;5109910;27;20637;-71
2024/01/24 12:33:00;;;;;;;;;;;10.80;99.90;;;;;;5103519;27;19923;-71
2024/01/24 12:35:27;;;;;;;;;;;11.00;99.90;;;;;;5105669;28;19923;-71
2024/01/24 12:37:56;;;;;;;;;;;11.00;99.90;;;;;;5124410;27;19931;-70
2024/01/24 12:40:22;;;;;;;;;;;11.00;99.80;;;;;;5120371;27;19927;-70
2024/01/24 12:42:47;;;;;;;;;;;11.10;99.90;;;;;;5108903;27;19923;-71
2024/01/24 12:45:14;;;;;;;;;;;11.70;99.90;;;;;;5107195;27;20453;-70
2024/01/24 12:47:40;;;;;;;;;;;12.20;98.80;;;;;;5103174;28;19930;-72
2024/01/24 12:50:06;;;;;;;;;;;12.40;98.50;;;;;;5123950;27;20450;-71
2024/01/24 12:52:32;;;;;;;;;;;12.70;97.70;;;;;;5113783;28;19980;-70
2024/01/24 12:55:00;;;;;;;;;;;12.70;97.20;;;;;;5126231;27;19923;-69
2024/01/24 12:57:27;;;;;;;;;;;12.80;97.50;;;;;;5101876;28;19928;-72
2024/01/24 12:59:52;;;;;;;;;;;13.10;97.30;;;;;;5104405;27;21216;-70
2024/01/24 13:02:18;;;;;;;;;;;13.10;97.40;;;;;;5109222;28;19923;-72
2024/01/24 13:04:45;;;;;;;;;;;13.10;97.10;;;;;;5106781;28;19923;-70
2024/01/24 13:07:11;;;;;;;;;;;12.90;96.80;;;;;;5109966;28;19924;-72
2024/01/24 13:09:36;;;;;;;;;;;12.70;96.90;;;;;;5110181;28;19927;-72
2024/01/24 13:12:02;;;;;;;;;;;12.40;97.10;;;;;;5109386;28;19934;-71
2024/01/24 13:14:28;;;;;;;;;;;12.10;97.20;;;;;;5106253;27;20029;-71
2024/01/24 13:16:54;;;;;;;;;;;12.10;97.00;;;;;;5111567;27;20283;-71
2024/01/24 13:19:20;;;;;;;;;;;11.70;97.70;;;;;;5109205;27;19924;-71
2024/01/24 13:21:45;;;;;;;;;;;11.60;98.10;;;;;;5114104;27;19924;-71
2024/01/24 13:24:11;;;;;;;;;;;11.50;98.40;;;;;;5133990;27;20362;-72
2024/01/24 13:26:36;;;;;;;;;;;11.40;98.50;;;;;;5115170;27;19937;-72
2024/01/24 13:29:02;;;;;;;;;;;11.50;98.30;;;;;;5114054;27;19927;-71
2024/01/24 13:31:28;;;;;;;;;;;11.30;98.60;;;;;;5113855;27;19942;-72
2024/01/24 13:33:54;;;;;;;;;;;11.30;98.80;;;;;;5113687;27;19924;-71
2024/01/24 13:36:20;;;;;;;;;;;11.30;99.00;;;;;;5110370;28;19924;-72
2024/01/24 13:38:45;;;;;;;;;;;11.20;98.50;;;;;;5125966;27;19924;-71
2024/01/24 13:41:11;;;;;;;;;;;11.10;98.80;;;;;;5114456;27;20019;-71
2024/01/24 13:43:37;;;;;;;;;;;11.00;98.90;;;;;;5114386;27;19924;-71
2024/01/24 13:46:03;;;;;;;;;;;10.90;99.00;;;;;;5113119;27;19935;-71
2024/01/24 13:48:28;;;;;;;;;;;10.80;99.30;;;;;;5105154;27;19946;-71
2024/01/24 13:50:54;;;;;;;;;;;10.70;99.30;;;;;;5104345;27;19924;-71
2024/01/24 13:53:20;;;;;;;;;;;10.70;99.40;;;;;;5103790;27;19931;-71
2024/01/24 13:55:46;;;;;;;;;;;10.70;99.60;;;;;;5093948;28;19959;-71
2024/01/24 13:58:11;;;;;;;;;;;10.50;99.80;;;;;;5100347;27;19927;-71
2024/01/24 14:00:37;;;;;;;;;;;10.40;99.80;;;;;;5106744;27;19930;-70
2024/01/24 14:03:04;;;;;;;;;;;10.40;99.90;;;;;;5112339;27;20377;-72
2024/01/24 14:05:30;;;;;;;;;;;10.40;99.90;;;;;;5110070;27;20342;-71
2024/01/24 14:07:55;;;;;;;;;;;10.30;99.90;;;;;;5114393;27;19930;-72
2024/01/24 14:10:21;;;;;;;;;;;10.40;99.90;;;;;;5103322;27;19924;-71
2024/01/24 14:12:47;;;;;;;;;;;10.40;99.90;;;;;;5114980;27;19933;-71